createdAt,value
2018-06-29T00:00:37.063Z,69.64
2018-06-29T00:02:30.996Z,68.68
2018-06-29T00:03:31.052Z,68.68
2018-06-29T00:05:24.756Z,69.51
2018-06-29T00:06:25.416Z,69.31
2018-06-29T00:08:19.374Z,69.12
2018-06-29T00:09:19.365Z,69.60
2018-06-29T00:11:13.798Z,69.06
2018-06-29T00:12:13.514Z,68.77
2018-06-29T00:14:07.974Z,69.31
2018-06-29T00:15:09.716Z,68.93
2018-06-29T00:17:01.951Z,69.41
2018-06-29T00:18:01.969Z,69.70
2018-06-29T00:19:56.353Z,69.79
2018-06-29T00:20:55.799Z,69.79
2018-06-29T00:22:49.501Z,69.70
2018-06-29T00:23:49.999Z,69.47
2018-06-29T00:25:44.713Z,69.79
2018-06-29T00:26:44.672Z,69.60
2018-06-29T00:28:38.388Z,69.22
2018-06-29T00:29:38.340Z,69.51
2018-06-29T00:31:33.066Z,69.70
2018-06-29T00:32:32.943Z,69.67
2018-06-29T00:34:26.684Z,70.09
2018-06-29T00:35:27.084Z,69.60
2018-06-29T00:37:20.983Z,69.47
2018-06-29T00:38:21.436Z,69.47
2018-06-29T00:40:15.090Z,69.95
2018-06-29T00:41:15.611Z,70.15
2018-06-29T00:43:09.440Z,70.43
2018-06-29T00:44:11.668Z,70.82
2018-06-29T00:46:03.334Z,70.53
2018-06-29T00:47:03.978Z,70.43
2018-06-29T00:48:57.711Z,71.30
2018-06-29T00:49:58.150Z,71.20
2018-06-29T00:51:51.808Z,71.20
2018-06-29T00:52:52.085Z,70.92
2018-06-29T00:54:46.074Z,70.92
2018-06-29T00:55:46.483Z,70.72
2018-06-29T00:57:40.180Z,70.53
2018-06-29T00:58:40.466Z,71.59
2018-06-29T01:00:34.859Z,71.69
2018-06-29T01:01:35.289Z,71.78
2018-06-29T01:03:28.540Z,71.26
2018-06-29T01:04:29.060Z,72.23
2018-06-29T01:06:22.749Z,72.13
2018-06-29T01:07:23.066Z,71.84
2018-06-29T01:09:16.940Z,72.26
2018-06-29T01:10:17.443Z,72.13
2018-06-29T01:12:11.383Z,72.42
2018-06-29T01:13:11.610Z,72.32
2018-06-29T01:15:05.187Z,72.61
2018-06-29T01:16:05.636Z,72.61
2018-06-29T01:17:59.986Z,72.52
2018-06-29T01:18:59.794Z,72.32
2018-06-29T01:20:53.472Z,72.42
2018-06-29T01:21:54.238Z,72.23
2018-06-29T01:23:47.930Z,73.00
2018-06-29T01:24:50.301Z,73.00
2018-06-29T01:26:42.071Z,72.67
2018-06-29T01:27:41.901Z,72.96
2018-06-29T01:29:36.724Z,72.77
2018-06-29T01:30:36.058Z,72.29
2018-06-29T01:32:30.167Z,72.86
2018-06-29T01:33:30.795Z,73.44
2018-06-29T01:35:24.941Z,74.02
2018-06-29T01:36:24.418Z,73.54
2018-06-29T01:38:18.613Z,73.54
2018-06-29T01:39:19.251Z,73.35
2018-06-29T01:41:13.881Z,73.25
2018-06-29T01:42:13.728Z,73.35
2018-06-29T01:44:07.411Z,73.44
2018-06-29T01:45:07.925Z,73.63
2018-06-29T01:47:02.012Z,73.15
2018-06-29T01:48:02.267Z,73.44
2018-06-29T01:49:55.909Z,73.63
2018-06-29T01:50:56.408Z,73.25
2018-06-29T01:52:50.253Z,73.63
2018-06-29T01:53:50.388Z,73.92
2018-06-29T01:55:44.175Z,73.44
2018-06-29T01:56:44.497Z,73.83
2018-06-29T01:58:38.953Z,74.02
2018-06-29T01:59:38.862Z,74.50
2018-06-29T02:01:32.533Z,75.90
2018-06-29T02:02:32.953Z,76.29
2018-06-29T02:04:26.930Z,76.09
2018-06-29T02:05:27.377Z,75.52
2018-06-29T02:07:21.339Z,74.98
2018-06-29T02:08:21.330Z,74.55
2018-06-29T02:10:15.687Z,74.94
2018-06-29T02:11:15.493Z,75.62
2018-06-29T02:13:09.078Z,76.19
2018-06-29T02:14:09.601Z,75.71
2018-06-29T02:16:03.790Z,76.00
2018-06-29T02:17:04.008Z,76.19
2018-06-29T02:18:58.032Z,76.09
2018-06-29T02:19:58.177Z,76.09
2018-06-29T02:21:51.892Z,76.96
2018-06-29T02:22:51.869Z,76.09
2018-06-29T02:24:46.888Z,77.25
2018-06-29T02:25:46.844Z,77.53
2018-06-29T02:27:41.235Z,77.15
2018-06-29T02:28:40.996Z,77.06
2018-06-29T02:30:35.412Z,77.11
2018-06-29T02:31:35.403Z,77.11
2018-06-29T02:33:30.133Z,77.31
2018-06-29T02:34:29.907Z,77.40
2018-06-29T02:36:24.337Z,77.40
2018-06-29T02:37:24.803Z,77.50
2018-06-29T02:39:18.946Z,77.78
2018-06-29T02:40:18.733Z,76.92
2018-06-29T02:42:12.590Z,77.21
2018-06-29T02:43:12.911Z,77.21
2018-06-29T02:45:06.969Z,77.40
2018-06-29T02:46:07.036Z,77.31
2018-06-29T02:48:01.404Z,77.69
2018-06-29T02:49:01.507Z,77.69
2018-06-29T02:50:55.680Z,77.59
2018-06-29T02:51:55.628Z,78.36
2018-06-29T02:53:49.382Z,77.69
2018-06-29T02:54:50.153Z,77.56
2018-06-29T02:56:43.604Z,78.13
2018-06-29T02:57:44.393Z,78.03
2018-06-29T02:59:38.168Z,78.13
2018-06-29T03:00:38.715Z,77.50
2018-06-29T03:02:32.839Z,78.17
2018-06-29T03:03:32.883Z,78.45
2018-06-29T03:05:27.041Z,78.52
2018-06-29T03:06:27.519Z,78.42
2018-06-29T03:08:22.371Z,79.19
2018-06-29T03:09:22.740Z,78.90
2018-06-29T03:11:15.901Z,79.47
2018-06-29T03:12:16.399Z,78.90
2018-06-29T03:14:10.640Z,79.86
2018-06-29T03:15:10.778Z,80.05
2018-06-29T03:17:05.208Z,80.34
2018-06-29T03:19:59.497Z,79.57
2018-06-29T03:20:59.406Z,79.86
2018-06-29T03:22:53.880Z,79.57
2018-06-29T03:23:53.776Z,79.76
2018-06-29T03:25:48.266Z,80.24
2018-06-29T03:26:48.230Z,80.43
2018-06-29T03:28:42.356Z,80.34
2018-06-29T03:29:42.247Z,80.24
2018-06-29T03:31:35.924Z,80.30
2018-06-29T03:32:36.370Z,80.73
2018-06-29T03:34:30.847Z,80.58
2018-06-29T03:35:30.549Z,80.58
2018-06-29T03:37:24.689Z,80.24
2018-06-29T03:38:24.711Z,80.63
2018-06-29T03:40:18.533Z,80.68
2018-06-29T03:41:19.535Z,81.54
2018-06-29T03:43:13.027Z,81.64
2018-06-29T03:44:13.147Z,81.01
2018-06-29T03:46:06.910Z,81.35
2018-06-29T03:47:07.297Z,82.21
2018-06-29T03:49:02.134Z,81.68
2018-06-29T03:50:01.701Z,81.74
2018-06-29T03:51:57.826Z,81.68
2018-06-29T03:52:56.187Z,81.54
2018-06-29T03:54:50.222Z,82.07
2018-06-29T03:55:50.257Z,81.68
2018-06-29T03:57:43.992Z,81.54
2018-06-29T03:58:46.225Z,81.68
2018-06-29T04:00:38.497Z,82.70
2018-06-29T04:01:38.706Z,82.12
2018-06-29T04:03:32.367Z,82.41
2018-06-29T04:04:32.791Z,82.60
2018-06-29T04:06:29.709Z,82.60
2018-06-29T04:07:26.988Z,82.70
2018-06-29T04:09:20.772Z,82.35
2018-06-29T04:10:21.356Z,82.93
2018-06-29T04:12:15.224Z,82.60
2018-06-29T04:13:17.299Z,83.27
2018-06-29T04:15:09.093Z,82.74
2018-06-29T04:16:09.573Z,83.65
2018-06-29T04:18:03.573Z,83.75
2018-06-29T04:19:03.323Z,82.89
2018-06-29T04:20:57.183Z,82.93
2018-06-29T04:21:57.579Z,82.93
2018-06-29T04:23:51.976Z,83.60
2018-06-29T04:24:52.066Z,83.37
2018-06-29T04:26:45.781Z,82.74
2018-06-29T04:27:46.527Z,83.08
2018-06-29T04:29:40.212Z,83.65
2018-06-29T04:30:40.349Z,83.22
2018-06-29T04:32:34.201Z,83.56
2018-06-29T04:33:34.585Z,83.89
2018-06-29T04:35:28.595Z,83.51
2018-06-29T04:36:28.854Z,83.51
2018-06-29T04:38:23.045Z,83.60
2018-06-29T04:39:23.459Z,83.80
2018-06-29T04:41:17.706Z,84.08
2018-06-29T04:42:17.756Z,83.41
2018-06-29T04:44:11.517Z,84.47
2018-06-29T04:45:12.032Z,84.08
2018-06-29T04:47:05.887Z,84.85
2018-06-29T04:48:06.183Z,84.95
2018-06-29T04:49:59.696Z,85.04
2018-06-29T04:51:02.215Z,84.37
2018-06-29T04:52:54.201Z,84.75
2018-06-29T04:53:54.297Z,84.75
2018-06-29T04:55:48.518Z,85.42
2018-06-29T04:56:48.564Z,85.42
2018-06-29T04:58:42.454Z,85.33
2018-06-29T04:59:42.636Z,85.42
2018-06-29T05:01:36.866Z,85.62
2018-06-29T05:02:36.792Z,85.91
2018-06-29T05:04:30.948Z,85.42
2018-06-29T05:05:30.952Z,85.33
2018-06-29T05:07:25.419Z,85.81
2018-06-29T05:08:25.406Z,85.91
2018-06-29T05:10:19.399Z,85.81
2018-06-29T05:11:19.460Z,85.52
2018-06-29T05:13:13.662Z,85.42
2018-06-29T05:14:14.052Z,85.42
2018-06-29T05:16:08.795Z,85.81
2018-06-29T05:17:08.203Z,84.99
2018-06-29T05:19:02.050Z,85.47
2018-06-29T05:20:02.383Z,85.47
2018-06-29T05:21:56.717Z,86.14
2018-06-29T05:22:56.723Z,86.05
2018-06-29T05:24:50.751Z,86.05
2018-06-29T05:25:50.941Z,85.85
2018-06-29T05:27:45.109Z,85.47
2018-06-29T05:28:44.621Z,85.57
2018-06-29T05:30:38.998Z,85.85
2018-06-29T05:31:39.238Z,86.14
2018-06-29T05:33:33.409Z,85.85
2018-06-29T05:34:33.413Z,86.24
2018-06-29T05:36:27.176Z,86.33
2018-06-29T05:37:27.439Z,85.37
2018-06-29T05:39:21.768Z,85.61
2018-06-29T05:40:21.623Z,85.71
2018-06-29T05:42:16.010Z,85.51
2018-06-29T05:43:16.040Z,85.85
2018-06-29T05:45:08.532Z,86.18
2018-06-29T05:46:08.535Z,85.89
2018-06-29T05:48:02.617Z,85.13
2018-06-29T05:49:07.032Z,86.09
2018-06-29T05:50:56.846Z,85.89
2018-06-29T05:51:57.915Z,85.80
2018-06-29T05:53:51.118Z,85.03
2018-06-29T05:54:52.296Z,85.51
2018-06-29T05:58:18.832Z,85.99
2018-06-29T05:59:19.651Z,86.18
2018-06-29T06:01:13.685Z,85.71
2018-06-29T06:02:13.693Z,85.32
2018-06-29T06:04:08.137Z,84.50
2018-06-29T06:05:08.024Z,84.17
2018-06-29T06:07:03.937Z,84.88
2018-06-29T06:08:01.816Z,84.30
2018-06-29T06:09:57.313Z,83.83
2018-06-29T06:10:54.777Z,83.63
2018-06-29T06:12:50.173Z,84.01
2018-06-29T06:13:49.058Z,84.21
2018-06-29T06:15:45.897Z,83.92
2018-06-29T06:16:44.701Z,84.30
2018-06-29T06:18:39.327Z,83.67
2018-06-29T06:19:38.506Z,83.96
2018-06-29T06:21:32.421Z,83.67
2018-06-29T06:22:33.217Z,83.58
2018-06-29T06:24:26.352Z,83.67
2018-06-29T06:25:25.790Z,83.86
2018-06-29T06:27:19.890Z,83.48
2018-06-29T06:28:19.907Z,83.19
2018-06-29T06:31:48.813Z,82.71
2018-06-29T06:32:49.261Z,82.27
2018-06-29T06:34:43.419Z,82.37
2018-06-29T06:35:43.785Z,82.81
2018-06-29T06:37:37.655Z,82.52
2018-06-29T06:38:36.619Z,82.75
2018-06-29T06:39:36.542Z,82.27
2018-06-29T06:40:38.012Z,82.56
2018-06-29T06:41:36.568Z,82.85
2018-06-29T06:42:37.586Z,83.33
2018-06-29T06:43:37.656Z,83.42
2018-06-29T06:44:39.617Z,82.56
2018-06-29T06:45:37.203Z,82.65
2018-06-29T06:46:38.433Z,82.65
2018-06-29T06:47:37.662Z,82.75
2018-06-29T06:48:37.581Z,82.37
2018-06-29T06:49:37.441Z,82.75
2018-06-29T06:50:37.655Z,82.27
2018-06-29T06:51:37.666Z,81.60
2018-06-29T06:52:38.183Z,81.88
2018-06-29T06:53:37.427Z,81.79
2018-06-29T06:54:38.185Z,82.08
2018-06-29T06:55:37.671Z,81.88
2018-06-29T06:56:38.199Z,81.83
2018-06-29T06:57:37.672Z,80.10
2018-06-29T06:58:38.288Z,80.06
2018-06-29T06:59:37.217Z,80.10
2018-06-29T07:00:38.202Z,80.58
2018-06-29T07:01:38.386Z,80.19
2018-06-29T07:02:38.124Z,80.00
2018-06-29T07:03:38.122Z,79.90
2018-06-29T07:04:38.124Z,79.23
2018-06-29T07:05:39.528Z,79.23
2018-06-29T07:06:38.260Z,79.13
2018-06-29T07:07:37.613Z,78.94
2018-06-29T07:08:38.211Z,79.03
2018-06-29T07:09:39.955Z,79.03
2018-06-29T07:10:37.980Z,78.85
2018-06-29T07:11:37.955Z,78.27
2018-06-29T07:12:38.560Z,77.88
2018-06-29T07:13:38.238Z,77.92
2018-06-29T07:14:38.131Z,78.02
2018-06-29T07:15:38.227Z,77.25
2018-06-29T07:16:38.464Z,77.73
2018-06-29T07:17:38.239Z,77.06
2018-06-29T07:18:38.204Z,77.25
2018-06-29T07:19:38.222Z,77.25
2018-06-29T07:20:38.171Z,77.34
2018-06-29T07:21:38.590Z,76.96
2018-06-29T07:22:38.132Z,76.86
2018-06-29T07:23:38.184Z,76.18
2018-06-29T07:24:37.995Z,75.45
2018-06-29T07:25:39.640Z,74.65
2018-06-29T07:26:39.102Z,74.20
2018-06-29T07:27:38.183Z,74.49
2018-06-29T07:28:38.050Z,74.40
2018-06-29T07:29:38.042Z,75.07
2018-06-29T07:30:36.546Z,74.78
2018-06-29T07:31:41.211Z,74.49
2018-06-29T07:32:38.525Z,74.88
2018-06-29T07:33:38.103Z,74.40
2018-06-29T07:34:38.048Z,74.88
2018-06-29T07:35:38.246Z,75.07
2018-06-29T07:36:38.189Z,75.93
2018-06-29T07:37:38.080Z,74.01
2018-06-29T07:38:38.196Z,73.75
2018-06-29T07:39:37.976Z,73.24
2018-06-29T07:40:38.744Z,73.05
2018-06-29T07:41:38.074Z,72.02
2018-06-29T07:42:38.599Z,70.57
2018-06-29T07:43:40.229Z,71.15
2018-06-29T07:44:38.243Z,71.64
2018-06-29T07:45:37.675Z,71.06
2018-06-29T07:46:38.554Z,70.67
2018-06-29T07:47:38.217Z,70.38
2018-06-29T07:48:38.835Z,71.06
2018-06-29T07:49:38.089Z,71.25
2018-06-29T07:50:37.777Z,71.15
2018-06-29T07:51:38.195Z,70.57
2018-06-29T07:52:38.220Z,70.70
2018-06-29T07:53:38.140Z,70.28
2018-06-29T07:54:38.058Z,69.84
2018-06-29T07:55:38.222Z,70.22
2018-06-29T07:56:38.192Z,69.93
2018-06-29T07:57:38.195Z,70.13
2018-06-29T07:58:38.363Z,70.80
2018-06-29T07:59:38.244Z,71.19
2018-06-29T08:00:38.499Z,70.90
2018-06-29T08:01:37.921Z,70.42
2018-06-29T08:02:38.024Z,69.64
2018-06-29T08:03:37.747Z,69.64
2018-06-29T08:04:37.989Z,69.45
2018-06-29T08:05:38.276Z,69.07
2018-06-29T08:06:38.273Z,68.68
2018-06-29T08:07:38.084Z,68.87
2018-06-29T08:09:38.169Z,67.91
2018-06-29T08:10:38.050Z,68.81
2018-06-29T08:11:38.640Z,68.23
2018-06-29T08:12:38.213Z,68.81
2018-06-29T08:13:38.815Z,68.71
2018-06-29T08:14:39.974Z,68.04
2018-06-29T08:15:37.985Z,67.36
2018-06-29T08:16:38.133Z,67.27
2018-06-29T08:17:38.480Z,67.30
2018-06-29T08:18:38.062Z,67.11
2018-06-29T08:19:38.035Z,66.72
2018-06-29T08:20:38.152Z,66.14
2018-06-29T08:21:38.257Z,66.14
2018-06-29T08:22:38.575Z,66.63
2018-06-29T08:23:38.345Z,66.05
2018-06-29T08:24:38.592Z,66.43
2018-06-29T08:25:38.119Z,65.95
2018-06-29T08:26:39.084Z,66.14
2018-06-29T08:27:38.196Z,66.53
2018-06-29T08:28:38.248Z,66.43
2018-06-29T08:29:38.602Z,65.95
2018-06-29T08:30:38.372Z,65.95
2018-06-29T08:31:38.458Z,65.56
2018-06-29T08:32:38.149Z,66.33
2018-06-29T08:33:38.456Z,66.63
2018-06-29T08:34:38.701Z,66.17
2018-06-29T08:35:38.530Z,65.40
2018-06-29T08:36:38.524Z,65.78
2018-06-29T08:37:38.157Z,65.50
2018-06-29T08:38:40.114Z,65.40
2018-06-29T08:39:38.728Z,64.53
2018-06-29T08:40:38.222Z,64.14
2018-06-29T08:41:38.169Z,64.72
2018-06-29T08:42:40.267Z,65.20
2018-06-29T08:43:38.226Z,65.11
2018-06-29T08:44:37.906Z,64.82
2018-06-29T08:45:38.265Z,64.34
2018-06-29T08:46:40.308Z,64.53
2018-06-29T08:47:38.523Z,64.05
2018-06-29T08:48:37.712Z,64.34
2018-06-29T08:49:38.789Z,64.14
2018-06-29T08:50:38.031Z,63.47
2018-06-29T08:51:38.217Z,63.40
2018-06-29T08:52:38.215Z,62.44
2018-06-29T08:53:37.786Z,61.18
2018-06-29T08:54:38.718Z,60.79
2018-06-29T08:55:38.911Z,60.50
2018-06-29T08:56:38.539Z,60.21
2018-06-29T08:57:37.996Z,60.69
2018-06-29T08:58:38.786Z,61.76
2018-06-29T08:59:38.562Z,61.37
2018-06-29T09:00:40.195Z,61.08
2018-06-29T09:01:38.220Z,61.27
2018-06-29T09:02:38.366Z,60.79
2018-06-29T09:03:38.199Z,60.31
2018-06-29T09:04:38.303Z,59.95
2018-06-29T09:05:38.654Z,60.34
2018-06-29T09:06:38.108Z,60.05
2018-06-29T09:07:38.549Z,59.47
2018-06-29T09:08:38.686Z,60.05
2018-06-29T09:09:38.169Z,59.86
2018-06-29T09:10:38.174Z,59.95
2018-06-29T09:11:38.074Z,59.28
2018-06-29T09:12:41.233Z,59.25
2018-06-29T09:13:38.718Z,59.28
2018-06-29T09:14:38.564Z,58.70
2018-06-29T09:15:38.250Z,58.34
2018-06-29T09:16:38.178Z,58.31
2018-06-29T09:17:38.282Z,59.08
2018-06-29T09:18:38.278Z,59.47
2018-06-29T09:19:38.277Z,58.31
2018-06-29T09:20:38.535Z,57.92
2018-06-29T09:21:38.621Z,57.56
2018-06-29T09:22:38.273Z,57.34
2018-06-29T09:23:38.214Z,57.28
2018-06-29T09:24:40.298Z,57.76
2018-06-29T09:25:38.607Z,56.88
2018-06-29T09:26:38.721Z,57.18
2018-06-29T09:27:37.785Z,57.66
2018-06-29T09:28:38.553Z,57.37
2018-06-29T09:29:38.746Z,56.79
2018-06-29T09:30:38.700Z,57.37
2018-06-29T09:31:37.737Z,57.37
2018-06-29T09:32:38.314Z,57.46
2018-06-29T09:33:40.186Z,57.37
2018-06-29T09:34:38.337Z,57.76
2018-06-29T09:35:38.593Z,57.66
2018-06-29T09:36:40.156Z,58.14
2018-06-29T09:37:38.313Z,58.72
2018-06-29T09:38:40.186Z,57.18
2018-06-29T09:39:40.022Z,56.60
2018-06-29T09:40:40.189Z,55.53
2018-06-29T09:41:40.740Z,55.17
2018-06-29T09:42:38.852Z,55.07
2018-06-29T09:43:38.379Z,55.34
2018-06-29T09:44:38.231Z,55.56
2018-06-29T09:45:38.782Z,55.85
2018-06-29T09:46:38.193Z,55.85
2018-06-29T09:47:38.718Z,55.88
2018-06-29T09:48:38.624Z,55.40
2018-06-29T09:49:38.560Z,55.49
2018-06-29T09:50:36.805Z,55.17
2018-06-29T09:51:40.081Z,56.24
2018-06-29T09:52:38.556Z,56.24
2018-06-29T09:53:38.107Z,56.24
2018-06-29T09:54:38.245Z,56.52
2018-06-29T09:55:38.817Z,56.52
2018-06-29T09:56:38.197Z,56.24
2018-06-29T09:57:38.243Z,56.16
2018-06-29T09:58:38.701Z,55.36
2018-06-29T09:59:38.823Z,56.04
2018-06-29T10:00:39.163Z,56.14
2018-06-29T10:01:37.951Z,56.60
2018-06-29T10:02:39.562Z,56.62
2018-06-29T10:03:38.713Z,56.24
2018-06-29T10:04:38.769Z,56.62
2018-06-29T10:05:38.780Z,55.36
2018-06-29T10:06:38.804Z,55.27
2018-06-29T10:07:38.481Z,55.56
2018-06-29T10:08:38.478Z,54.98
2018-06-29T10:09:39.637Z,54.62
2018-06-29T10:10:39.144Z,53.94
2018-06-29T10:11:40.039Z,53.26
2018-06-29T10:12:38.239Z,53.45
2018-06-29T10:13:38.631Z,53.65
2018-06-29T10:14:38.574Z,53.45
2018-06-29T10:15:38.293Z,52.87
2018-06-29T10:16:39.030Z,52.61
2018-06-29T10:17:41.040Z,51.35
2018-06-29T10:18:38.533Z,50.96
2018-06-29T10:19:40.603Z,51.32
2018-06-29T10:20:39.109Z,51.06
2018-06-29T10:21:38.271Z,50.48
2018-06-29T10:22:38.769Z,50.77
2018-06-29T10:23:38.270Z,49.41
2018-06-29T10:24:39.087Z,49.70
2018-06-29T10:25:42.273Z,49.22
2018-06-29T10:26:38.774Z,49.41
2018-06-29T10:27:39.092Z,49.22
2018-06-29T10:28:39.165Z,50.19
2018-06-29T10:29:38.765Z,49.12
2018-06-29T10:30:38.752Z,49.70
2018-06-29T10:31:38.767Z,50.19
2018-06-29T10:32:39.089Z,49.68
2018-06-29T10:33:39.038Z,49.99
2018-06-29T10:34:38.164Z,50.38
2018-06-29T10:35:38.400Z,49.80
2018-06-29T10:36:39.097Z,50.87
2018-06-29T10:37:38.336Z,49.54
2018-06-29T10:38:36.910Z,49.92
2018-06-29T10:39:38.795Z,48.85
2018-06-29T10:40:38.804Z,49.05
2018-06-29T10:41:38.277Z,49.54
2018-06-29T10:42:39.306Z,50.02
2018-06-29T10:43:38.471Z,49.15
2018-06-29T10:44:38.291Z,48.00
2018-06-29T10:45:38.531Z,48.18
2018-06-29T10:46:38.802Z,47.30
2018-06-29T10:47:38.920Z,47.69
2018-06-29T10:48:41.417Z,48.47
2018-06-29T10:49:39.217Z,48.78
2018-06-29T10:50:38.226Z,48.95
2018-06-29T10:51:38.645Z,49.15
2018-06-29T10:52:38.718Z,49.54
2018-06-29T10:53:38.223Z,49.34
2018-06-29T10:54:39.783Z,49.27
2018-06-29T10:55:38.508Z,49.66
2018-06-29T10:56:38.817Z,49.66
2018-06-29T10:57:38.273Z,49.27
2018-06-29T10:58:38.042Z,48.39
2018-06-29T10:59:38.722Z,49.75
2018-06-29T11:00:38.798Z,49.66
2018-06-29T11:01:38.295Z,49.66
2018-06-29T11:02:38.804Z,50.43
2018-06-29T11:03:38.557Z,50.82
2018-06-29T11:04:38.725Z,49.39
2018-06-29T11:05:40.510Z,47.64
2018-06-29T11:06:38.583Z,47.74
2018-06-29T11:07:39.231Z,46.21
2018-06-29T11:08:38.791Z,45.62
2018-06-29T11:09:38.721Z,45.70
2018-06-29T11:10:38.629Z,45.41
2018-06-29T11:11:41.100Z,45.21
2018-06-29T11:12:38.092Z,45.97
2018-06-29T11:13:38.812Z,45.89
2018-06-29T11:14:39.251Z,45.51
2018-06-29T11:15:38.971Z,44.27
2018-06-29T11:16:41.606Z,43.78
2018-06-29T11:17:38.494Z,43.40
2018-06-29T11:18:39.918Z,43.49
2018-06-29T11:19:38.841Z,43.51
2018-06-29T11:20:38.518Z,43.41
2018-06-29T11:21:38.769Z,43.78
2018-06-29T11:22:38.803Z,43.61
2018-06-29T11:23:38.829Z,43.61
2018-06-29T11:24:39.123Z,42.36
2018-06-29T11:25:39.307Z,41.08
2018-06-29T11:26:38.821Z,42.05
2018-06-29T11:27:39.203Z,41.96
2018-06-29T11:28:38.791Z,41.96
2018-06-29T11:30:39.247Z,41.96
2018-06-29T11:31:38.682Z,42.44
2018-06-29T11:32:41.381Z,42.93
2018-06-29T11:33:38.828Z,42.56
2018-06-29T11:34:40.803Z,42.19
2018-06-29T11:35:38.602Z,41.49
2018-06-29T11:36:38.843Z,41.88
2018-06-29T11:37:38.548Z,42.00
2018-06-29T11:38:40.802Z,42.29
2018-06-29T11:39:38.571Z,41.51
2018-06-29T11:40:38.740Z,41.22
2018-06-29T11:41:40.204Z,41.22
2018-06-29T11:42:39.197Z,40.93
2018-06-29T11:43:39.580Z,40.15
2018-06-29T11:44:38.879Z,40.25
2018-06-29T11:45:38.808Z,41.03
2018-06-29T11:46:39.228Z,41.13
2018-06-29T11:47:41.825Z,39.96
2018-06-29T11:48:38.684Z,40.08
2018-06-29T11:49:39.200Z,39.98
2018-06-29T11:50:38.818Z,40.75
2018-06-29T11:51:39.192Z,41.24
2018-06-29T11:52:39.205Z,41.53
2018-06-29T11:53:38.788Z,41.05
2018-06-29T11:54:39.115Z,41.14
2018-06-29T11:55:38.302Z,41.24
2018-06-29T11:56:39.118Z,41.55
2018-06-29T11:57:38.847Z,41.75
2018-06-29T11:58:38.768Z,41.05
2018-06-29T11:59:38.662Z,40.85
2018-06-29T12:00:38.821Z,41.94
2018-06-29T12:01:38.798Z,41.16
2018-06-29T12:02:38.757Z,40.88
2018-06-29T12:03:39.098Z,40.37
2018-06-29T12:04:39.031Z,40.85
2018-06-29T12:05:38.259Z,40.66
2018-06-29T12:06:39.813Z,40.88
2018-06-29T12:07:39.102Z,40.50
2018-06-29T12:08:39.135Z,41.19
2018-06-29T12:09:38.760Z,40.99
2018-06-29T12:10:39.022Z,41.48
2018-06-29T12:11:39.114Z,42.25
2018-06-29T12:12:38.753Z,40.50
2018-06-29T12:13:39.332Z,40.70
2018-06-29T12:14:38.775Z,41.77
2018-06-29T12:15:40.925Z,40.99
2018-06-29T12:16:38.356Z,41.01
2018-06-29T12:17:40.759Z,40.23
2018-06-29T12:18:39.745Z,41.11
2018-06-29T12:19:39.126Z,40.33
2018-06-29T12:20:40.830Z,40.42
2018-06-29T12:21:38.800Z,40.13
2018-06-29T12:22:39.051Z,40.01
2018-06-29T12:23:39.306Z,40.01
2018-06-29T12:24:39.274Z,40.31
2018-06-29T12:25:41.168Z,40.13
2018-06-29T12:26:39.209Z,40.16
2018-06-29T12:27:38.811Z,39.18
2018-06-29T12:28:39.227Z,39.37
2018-06-29T12:29:38.824Z,39.76
2018-06-29T12:30:40.774Z,39.47
2018-06-29T12:31:38.767Z,39.57
2018-06-29T12:32:38.889Z,39.69
2018-06-29T12:33:41.304Z,38.59
2018-06-29T12:34:38.772Z,38.30
2018-06-29T12:35:38.773Z,38.61
2018-06-29T12:36:38.635Z,39.29
2018-06-29T12:37:39.177Z,38.61
2018-06-29T12:38:38.811Z,37.93
2018-06-29T12:39:39.332Z,37.35
2018-06-29T12:40:39.363Z,37.91
2018-06-29T12:41:39.457Z,38.02
2018-06-29T12:42:39.339Z,37.65
2018-06-29T12:43:39.616Z,37.75
2018-06-29T12:44:40.095Z,37.19
2018-06-29T12:45:39.319Z,36.08
2018-06-29T12:46:40.056Z,36.76
2018-06-29T12:47:38.819Z,36.29
2018-06-29T12:48:39.652Z,36.10
2018-06-29T12:50:39.482Z,35.46
2018-06-29T12:51:39.258Z,35.56
2018-06-29T12:52:38.783Z,35.46
2018-06-29T12:53:39.331Z,35.09
2018-06-29T12:54:39.284Z,34.48
2018-06-29T12:55:42.297Z,34.19
2018-06-29T12:56:39.377Z,34.48
2018-06-29T12:57:39.405Z,33.92
2018-06-29T12:58:45.829Z,33.62
2018-06-29T12:59:38.881Z,32.94
2018-06-29T13:00:38.783Z,33.79
2018-06-29T13:01:39.372Z,33.62
2018-06-29T13:02:39.364Z,33.45
2018-06-29T13:03:38.783Z,33.53
2018-06-29T13:04:39.501Z,33.74
2018-06-29T13:05:39.734Z,33.62
2018-06-29T13:06:39.357Z,33.84
2018-06-29T13:07:39.831Z,32.29
2018-06-29T13:08:37.855Z,31.80
2018-06-29T13:09:39.246Z,31.80
2018-06-29T13:10:41.634Z,30.44
2018-06-29T13:11:41.088Z,29.49
2018-06-29T13:12:39.637Z,28.71
2018-06-29T13:13:39.348Z,29.30
2018-06-29T13:14:39.810Z,29.02
2018-06-29T13:15:39.500Z,28.45
2018-06-29T13:16:38.936Z,28.83
2018-06-29T13:17:41.312Z,28.54
2018-06-29T13:18:39.885Z,28.75
2018-06-29T13:19:37.931Z,28.34
2018-06-29T13:20:39.916Z,28.44
2018-06-29T13:21:39.350Z,28.26
2018-06-29T13:22:39.721Z,28.17
2018-06-29T13:23:39.800Z,27.62
2018-06-29T13:24:39.692Z,26.14
2018-06-29T13:25:39.816Z,26.63
2018-06-29T13:26:39.799Z,25.66
2018-06-29T13:27:39.801Z,25.05
2018-06-29T13:28:40.351Z,25.16
2018-06-29T13:29:42.137Z,26.03
2018-06-29T13:30:39.685Z,25.46
2018-06-29T13:31:39.881Z,24.22
2018-06-29T13:32:42.146Z,24.33
2018-06-29T13:33:39.758Z,23.16
2018-06-29T13:34:41.808Z,22.58
2018-06-29T13:35:39.853Z,22.47
2018-06-29T13:36:41.466Z,22.19
2018-06-29T13:37:40.390Z,22.39
2018-06-29T13:38:39.907Z,21.87
2018-06-29T13:39:40.166Z,21.98
2018-06-29T13:40:39.806Z,20.84
2018-06-29T13:41:40.319Z,20.65
2018-06-29T13:42:40.018Z,19.56
2018-06-29T13:43:40.128Z,19.46
2018-06-29T13:44:40.275Z,18.98
2018-06-29T13:45:39.869Z,18.88
2018-06-29T13:46:40.847Z,18.90
2018-06-29T13:47:40.355Z,18.21
2018-06-29T13:48:40.386Z,17.43
2018-06-29T13:49:39.886Z,17.52
2018-06-29T13:50:39.881Z,17.42
2018-06-29T13:51:40.682Z,18.01
2018-06-29T13:52:39.863Z,17.91
2018-06-29T13:53:40.627Z,18.12
2018-06-29T13:54:40.334Z,17.35
2018-06-29T13:55:40.375Z,17.25
2018-06-29T13:56:40.670Z,16.56
2018-06-29T13:57:42.407Z,16.56
2018-06-29T13:58:39.817Z,16.66
2018-06-29T13:59:40.695Z,15.98
2018-06-29T14:00:40.158Z,16.18
2018-06-29T14:01:40.632Z,16.07
2018-06-29T14:02:40.395Z,16.95
2018-06-29T14:03:46.827Z,15.95
2018-06-29T14:04:40.349Z,16.64
2018-06-29T14:05:40.528Z,16.46
2018-06-29T14:06:40.850Z,16.47
2018-06-29T14:07:40.860Z,16.46
2018-06-29T14:08:40.277Z,16.07
2018-06-29T14:09:41.791Z,16.53
2018-06-29T14:10:40.357Z,16.64
2018-06-29T14:11:40.303Z,16.83
2018-06-29T14:12:40.426Z,17.60
2018-06-29T14:13:40.657Z,17.91
2018-06-29T14:14:40.387Z,16.95
2018-06-29T14:15:41.251Z,17.13
2018-06-29T14:16:40.816Z,17.43
2018-06-29T14:17:40.823Z,17.03
2018-06-29T14:18:40.702Z,16.64
2018-06-29T14:19:40.839Z,16.84
2018-06-29T14:20:40.688Z,16.85
2018-06-29T14:21:40.827Z,16.76
2018-06-29T14:22:42.825Z,16.96
2018-06-29T14:23:41.177Z,17.24
2018-06-29T14:24:40.764Z,16.75
2018-06-29T14:25:40.875Z,16.93
2018-06-29T14:26:40.829Z,17.91
2018-06-29T14:27:40.848Z,17.30
2018-06-29T14:28:40.789Z,17.31
2018-06-29T14:29:40.782Z,17.23
2018-06-29T14:30:42.927Z,17.30
2018-06-29T14:31:40.882Z,20.04
2018-06-29T14:32:40.870Z,19.17
2018-06-29T14:33:41.323Z,19.56
2018-06-29T14:34:41.371Z,19.28
2018-06-29T14:35:40.838Z,18.77
2018-06-29T14:36:43.785Z,19.77
2018-06-29T14:37:42.559Z,19.17
2018-06-29T14:38:43.407Z,19.26
2018-06-29T14:39:41.273Z,19.55
2018-06-29T14:40:45.033Z,18.78
2018-06-29T14:41:41.394Z,18.97
2018-06-29T14:42:41.375Z,19.44
2018-06-29T14:43:41.336Z,19.24
2018-06-29T14:44:41.382Z,19.15
2018-06-29T14:45:41.189Z,18.68
2018-06-29T14:46:41.963Z,18.50
2018-06-29T14:47:41.435Z,18.30
2018-06-29T14:48:41.376Z,19.47
2018-06-29T14:49:41.335Z,20.04
2018-06-29T14:50:41.691Z,20.79
2018-06-29T14:51:41.332Z,21.31
2018-06-29T14:52:41.257Z,20.43
2018-06-29T14:53:41.943Z,20.99
2018-06-29T14:54:41.709Z,20.72
2018-06-29T14:55:41.693Z,20.32
2018-06-29T14:56:42.135Z,19.85
2018-06-29T14:57:41.920Z,20.23
2018-06-29T14:58:41.734Z,20.32
2018-06-29T14:59:41.939Z,20.01
2018-06-29T15:00:41.392Z,20.12
2018-06-29T15:01:41.425Z,20.21
2018-06-29T15:02:41.387Z,20.14